Time;durP1;ratioP1;P1;durP2;ratioP2;P2;SDS_P1;SDS_P2;PMS_P1;PMS_P2;Temp;Humidity;BMP_temperature;BMP_pressure;BME280_temperature;BME280_humidity;BME280_pressure;Samples;Min_cycle;Max_cycle;Signal;HPM_P1;HPM_P2
2021/11/16 00:01:26;;;;;;;34.15;18.50;;;8.40;99.90;;;;;;5053206;28;20515;-57
2021/11/16 00:03:54;;;;;;;37.03;19.73;;;8.40;99.90;;;;;;5071266;28;20066;-57
2021/11/16 00:06:20;;;;;;;37.33;19.02;;;8.30;99.90;;;;;;5070965;28;20442;-57
2021/11/16 00:08:47;;;;;;;36.10;18.88;;;8.40;99.90;;;;;;5071333;28;20032;-57
2021/11/16 00:11:12;;;;;;;35.20;19.98;;;8.50;99.90;;;;;;5070272;28;20491;-56
2021/11/16 00:13:38;;;;;;;36.78;18.63;;;8.40;99.90;;;;;;5071145;28;20143;-57
2021/11/16 00:16:05;;;;;;;36.28;19.45;;;8.50;99.90;;;;;;5070445;28;20035;-55
2021/11/16 00:18:31;;;;;;;36.85;19.52;;;8.40;99.90;;;;;;5071273;28;20071;-56
2021/11/16 00:20:58;;;;;;;35.45;18.08;;;8.30;99.90;;;;;;5074493;28;20103;-57
2021/11/16 00:23:33;;;;;;;37.30;19.73;;;8.30;99.90;;;;;;5074743;28;20082;-56
2021/11/16 00:26:00;;;;;;;47.15;20.27;;;8.30;99.90;;;;;;5074347;28;20050;-57
2021/11/16 00:28:27;;;;;;;37.08;19.58;;;8.30;99.90;;;;;;5074539;28;20025;-56
2021/11/16 00:30:54;;;;;;;37.53;19.75;;;8.40;99.90;;;;;;5056806;28;20028;-56
2021/11/16 00:33:22;;;;;;;39.60;20.05;;;8.40;99.90;;;;;;5074376;28;20028;-56
2021/11/16 00:35:49;;;;;;;39.13;20.08;;;8.30;99.90;;;;;;5056774;28;20028;-57
2021/11/16 00:38:16;;;;;;;37.70;19.08;;;8.40;99.90;;;;;;5074222;28;20233;-57
2021/11/16 00:40:43;;;;;;;42.42;20.13;;;8.40;99.90;;;;;;5074584;28;20028;-56
2021/11/16 00:43:09;;;;;;;39.58;20.15;;;8.30;99.90;;;;;;5074043;28;20449;-56
2021/11/16 00:45:41;;;;;;;37.72;20.27;;;8.20;99.90;;;;;;5074331;28;20124;-57
2021/11/16 00:48:08;;;;;;;36.92;18.52;;;8.30;99.90;;;;;;5056200;28;20424;-57
2021/11/16 00:50:35;;;;;;;38.80;21.52;;;8.20;99.90;;;;;;5074142;28;20375;-56
2021/11/16 00:53:01;;;;;;;32.70;19.55;;;8.30;99.90;;;;;;5073758;28;20025;-56
2021/11/16 00:55:27;;;;;;;40.95;19.77;;;8.30;99.90;;;;;;5074366;28;20377;-56
2021/11/16 00:57:52;;;;;;;42.13;21.55;;;8.30;99.90;;;;;;5074080;28;20060;-56
2021/11/16 01:00:18;;;;;;;36.70;18.60;;;8.30;99.90;;;;;;5055754;28;20025;-56
2021/11/16 01:02:45;;;;;;;36.03;19.38;;;8.30;99.90;;;;;;5056383;28;20035;-57
2021/11/16 01:05:14;;;;;;;42.90;20.10;;;8.30;99.90;;;;;;5055484;28;20043;-56
2021/11/16 01:07:42;;;;;;;45.22;22.13;;;8.30;99.90;;;;;;5074163;28;20021;-56
2021/11/16 01:10:10;;;;;;;47.22;20.00;;;8.10;99.90;;;;;;5055693;28;20035;-57
2021/11/16 01:12:36;;;;;;;40.92;19.85;;;8.20;99.90;;;;;;5056174;28;20032;-56
2021/11/16 01:15:03;;;;;;;34.55;18.15;;;8.20;99.90;;;;;;5073497;28;20078;-56
2021/11/16 01:17:29;;;;;;;42.67;20.95;;;8.20;99.90;;;;;;5073417;28;20040;-57
2021/11/16 01:19:55;;;;;;;49.20;20.88;;;8.10;99.90;;;;;;5073963;28;20024;-56
2021/11/16 01:22:20;;;;;;;47.33;20.20;;;8.10;99.90;;;;;;5073351;28;20029;-57
2021/11/16 01:24:46;;;;;;;44.45;22.10;;;8.10;99.90;;;;;;5054648;28;20032;-57
2021/11/16 01:27:17;;;;;;;40.42;19.90;;;8.20;99.90;;;;;;5074471;28;20063;-56
2021/11/16 01:29:43;;;;;;;36.45;19.13;;;8.20;99.90;;;;;;5074559;28;20075;-56
2021/11/16 01:32:24;;;;;;;38.25;19.35;;;8.30;99.90;;;;;;5054271;28;20131;-60
2021/11/16 01:34:51;;;;;;;40.15;20.58;;;8.20;99.90;;;;;;5073819;28;20456;-57
2021/11/16 01:37:16;;;;;;;40.95;18.77;;;8.30;99.90;;;;;;5073007;28;20085;-55
2021/11/16 01:39:42;;;;;;;38.15;19.60;;;8.30;99.90;;;;;;5055835;28;20116;-55
2021/11/16 01:42:08;;;;;;;42.20;20.92;;;8.20;99.90;;;;;;5054929;28;20150;-56
2021/11/16 01:44:35;;;;;;;38.45;19.33;;;8.20;99.90;;;;;;5055243;28;20036;-56
2021/11/16 01:47:00;;;;;;;40.22;19.60;;;8.30;99.90;;;;;;5072371;28;20493;-57
2021/11/16 01:49:26;;;;;;;37.83;20.83;;;8.20;99.90;;;;;;5073264;28;20037;-56
2021/11/16 01:51:52;;;;;;;38.47;18.92;;;8.20;99.90;;;;;;5055318;28;20054;-57
2021/11/16 01:54:17;;;;;;;37.65;19.15;;;8.20;99.90;;;;;;5072452;28;20481;-56
2021/11/16 01:56:46;;;;;;;38.88;19.55;;;8.20;99.90;;;;;;5072917;28;20493;-56
2021/11/16 01:59:13;;;;;;;40.08;19.33;;;8.10;99.90;;;;;;5054629;28;20086;-56
2021/11/16 02:01:40;;;;;;;40.60;19.13;;;8.10;99.90;;;;;;5073130;28;20054;-56
2021/11/16 02:04:07;;;;;;;45.00;20.00;;;8.10;99.90;;;;;;5072165;28;20465;-57
2021/11/16 02:06:37;;;;;;;42.95;20.88;;;8.10;99.90;;;;;;5073015;28;20027;-56
2021/11/16 02:09:07;;;;;;;42.13;20.15;;;8.20;99.90;;;;;;5072248;28;20047;-56
2021/11/16 02:11:33;;;;;;;35.33;18.73;;;8.10;99.90;;;;;;5054929;28;20120;-57
2021/11/16 02:14:00;;;;;;;36.88;18.83;;;8.20;99.90;;;;;;5038265;28;20028;-56
2021/11/16 02:16:26;;;;;;;42.55;21.27;;;8.30;99.90;;;;;;5072483;28;20135;-57
2021/11/16 02:18:52;;;;;;;44.33;20.15;;;8.20;99.90;;;;;;5053827;28;20087;-56
2021/11/16 02:21:19;;;;;;;39.92;20.67;;;8.20;99.90;;;;;;5052108;28;20029;-56
2021/11/16 02:23:45;;;;;;;37.25;18.88;;;8.20;99.90;;;;;;5034670;28;20450;-56
2021/11/16 02:26:12;;;;;;;38.47;19.80;;;8.30;99.90;;;;;;5033997;28;20025;-56
2021/11/16 02:28:41;;;;;;;43.92;19.65;;;8.30;99.90;;;;;;5052366;28;20021;-57
2021/11/16 02:31:06;;;;;;;39.40;18.50;;;8.30;99.90;;;;;;5033787;28;20029;-56
2021/11/16 02:33:32;;;;;;;43.47;21.58;;;8.20;99.90;;;;;;5052552;28;20032;-57
2021/11/16 02:35:58;;;;;;;44.95;20.98;;;8.20;99.90;;;;;;5052624;28;20028;-57
2021/11/16 02:38:25;;;;;;;36.83;19.48;;;8.20;99.90;;;;;;5051914;28;20029;-56
2021/11/16 02:40:53;;;;;;;41.90;21.15;;;8.20;99.90;;;;;;5034491;28;20043;-57
2021/11/16 02:43:20;;;;;;;39.35;19.45;;;8.30;99.90;;;;;;5051593;28;20415;-56
2021/11/16 02:45:47;;;;;;;39.85;19.17;;;8.20;99.90;;;;;;5052193;28;20029;-55
2021/11/16 02:48:13;;;;;;;35.38;18.27;;;8.20;99.90;;;;;;5051415;28;20151;-56
2021/11/16 02:50:59;;;;;;;41.25;20.83;;;8.20;99.90;;;;;;5052224;28;20044;-57
2021/11/16 02:53:25;;;;;;;41.33;19.58;;;8.20;99.90;;;;;;5051392;28;20088;-56
2021/11/16 02:55:51;;;;;;;35.90;19.23;;;8.20;99.90;;;;;;5052199;28;20037;-56
2021/11/16 02:58:19;;;;;;;37.78;20.10;;;8.30;99.90;;;;;;5051271;28;20104;-57
2021/11/16 03:00:50;;;;;;;47.33;20.17;;;8.30;99.90;;;;;;5034193;28;20029;-57
2021/11/16 03:03:18;;;;;;;35.55;18.73;;;8.30;99.90;;;;;;5033630;28;20108;-57
2021/11/16 03:05:43;;;;;;;42.50;20.30;;;8.20;99.90;;;;;;5051874;28;20128;-57
2021/11/16 03:08:22;;;;;;;37.67;19.48;;;8.10;99.90;;;;;;5051241;28;20116;-57
2021/11/16 03:10:50;;;;;;;41.47;20.65;;;8.10;99.90;;;;;;5052041;28;20021;-57
2021/11/16 03:13:17;;;;;;;41.03;20.10;;;8.10;99.90;;;;;;5051023;28;20040;-57
2021/11/16 03:15:43;;;;;;;39.28;20.10;;;8.10;99.90;;;;;;5051876;28;20135;-56
2021/11/16 03:18:10;;;;;;;36.83;19.10;;;8.10;99.90;;;;;;5046255;28;20135;-57
2021/11/16 03:20:36;;;;;;;36.70;19.38;;;8.10;99.90;;;;;;5053628;28;20052;-57
2021/11/16 03:23:21;;;;;;;34.65;19.17;;;8.10;99.90;;;;;;5071683;28;20064;-57
2021/11/16 03:26:07;;;;;;;44.85;21.25;;;8.10;99.90;;;;;;5071696;28;20033;-57
2021/11/16 03:28:36;;;;;;;33.88;18.00;;;8.00;99.90;;;;;;5071818;28;20029;-57
2021/11/16 03:31:11;;;;;;;38.10;20.05;;;8.00;99.90;;;;;;5053727;28;20021;-57
2021/11/16 03:33:39;;;;;;;36.05;18.40;;;8.10;99.90;;;;;;5071732;28;20060;-57
2021/11/16 03:36:06;;;;;;;42.42;20.45;;;8.10;99.90;;;;;;5071310;28;20032;-57
2021/11/16 03:38:33;;;;;;;37.33;18.70;;;8.00;99.90;;;;;;5071210;28;20051;-56
2021/11/16 03:40:58;;;;;;;36.42;19.17;;;8.00;99.90;;;;;;5071785;28;20024;-57
2021/11/16 03:43:24;;;;;;;40.40;19.58;;;8.00;99.90;;;;;;5070909;28;20438;-56
2021/11/16 03:45:51;;;;;;;42.72;20.45;;;8.00;99.90;;;;;;5071132;28;20056;-56
2021/11/16 03:48:18;;;;;;;42.95;20.25;;;8.00;99.90;;;;;;5052847;28;20033;-57
2021/11/16 03:50:44;;;;;;;41.63;20.35;;;8.00;99.90;;;;;;5071281;28;20427;-57
2021/11/16 03:53:10;;;;;;;34.97;18.58;;;8.00;99.90;;;;;;5052803;28;20024;-56
2021/11/16 03:55:41;;;;;;;42.30;20.33;;;7.90;99.90;;;;;;5075142;28;20346;-56
2021/11/16 03:58:08;;;;;;;40.80;18.95;;;8.00;99.90;;;;;;5075305;28;20025;-69
2021/11/16 04:00:38;;;;;;;38.92;19.92;;;8.00;99.90;;;;;;5075207;28;20531;-56
2021/11/16 04:03:04;;;;;;;43.50;19.25;;;8.00;99.90;;;;;;5075644;28;20036;-56
2021/11/16 04:05:30;;;;;;;42.28;20.50;;;8.00;99.90;;;;;;5074780;28;20079;-56
2021/11/16 04:07:56;;;;;;;40.20;20.33;;;8.00;99.90;;;;;;5075249;28;20032;-56
2021/11/16 04:10:23;;;;;;;42.47;21.63;;;8.00;99.90;;;;;;5056892;28;20036;-57
2021/11/16 04:12:50;;;;;;;42.83;20.20;;;8.00;99.90;;;;;;5057113;28;20441;-57
2021/11/16 04:15:20;;;;;;;40.25;20.38;;;7.90;99.90;;;;;;5074601;28;20115;-57
2021/11/16 04:17:46;;;;;;;38.88;19.42;;;7.90;99.90;;;;;;5057308;28;20466;-57
2021/11/16 04:20:22;;;;;;;42.50;20.30;;;8.00;99.90;;;;;;5074483;28;20078;-57
2021/11/16 04:22:48;;;;;;;47.25;21.88;;;7.90;99.90;;;;;;5075064;28;20031;-56
2021/11/16 04:25:14;;;;;;;45.78;22.13;;;7.90;99.90;;;;;;5056434;28;20311;-57
2021/11/16 04:27:42;;;;;;;38.80;19.23;;;7.90;99.90;;;;;;5074927;28;20025;-56
2021/11/16 04:30:10;;;;;;;46.03;21.90;;;7.90;99.90;;;;;;5075037;28;20017;-56
2021/11/16 04:32:35;;;;;;;50.75;20.95;;;7.90;99.90;;;;;;5075050;28;20111;-57
2021/11/16 04:35:02;;;;;;;43.00;19.38;;;7.90;99.90;;;;;;5074634;28;20056;-56
2021/11/16 04:37:27;;;;;;;41.22;20.38;;;8.00;99.90;;;;;;5074273;28;20468;-57
2021/11/16 04:39:53;;;;;;;37.08;20.10;;;8.00;99.90;;;;;;5056799;28;20056;-56
2021/11/16 04:42:19;;;;;;;41.22;20.73;;;8.10;99.90;;;;;;5056129;28;20031;-56
2021/11/16 04:44:46;;;;;;;43.78;21.23;;;8.10;99.90;;;;;;5074351;28;20037;-56
2021/11/16 04:47:19;;;;;;;40.13;19.55;;;8.00;99.90;;;;;;5073671;28;20032;-56
2021/11/16 04:49:51;;;;;;;37.03;18.92;;;7.90;99.90;;;;;;5074867;28;20032;-55
2021/11/16 05:03:24;;;;;;;39.15;19.67;;;8.00;99.90;;;;;;5073671;28;20182;-57
2021/11/16 05:05:49;;;;;;;45.75;19.85;;;7.90;99.90;;;;;;5054974;28;20119;-57
2021/11/16 05:08:16;;;;;;;39.53;20.65;;;7.90;99.90;;;;;;5073291;28;20108;-57
2021/11/16 05:10:42;;;;;;;41.67;19.90;;;7.90;99.90;;;;;;5056159;28;20020;-56
2021/11/16 05:13:07;;;;;;;43.47;19.30;;;8.00;99.90;;;;;;5073910;28;20032;-56
2021/11/16 05:15:34;;;;;;;45.28;22.67;;;8.00;99.90;;;;;;5055103;28;20028;-57
2021/11/16 05:18:00;;;;;;;40.95;19.48;;;7.90;99.90;;;;;;5061807;28;20386;-56
2021/11/16 05:20:26;;;;;;;40.40;19.88;;;7.90;99.90;;;;;;5035406;28;20058;-56
2021/11/16 05:22:54;;;;;;;42.38;20.75;;;8.00;99.90;;;;;;5035783;28;20025;-57
2021/11/16 05:25:21;;;;;;;41.55;19.50;;;7.90;99.90;;;;;;5053215;28;20098;-57
2021/11/16 05:27:47;;;;;;;35.08;19.15;;;7.90;99.90;;;;;;5035879;28;20059;-56
2021/11/16 05:30:15;;;;;;;43.78;20.05;;;7.90;99.90;;;;;;5053186;28;20523;-60
2021/11/16 05:32:42;;;;;;;39.80;19.92;;;7.90;99.90;;;;;;5053483;28;20482;-57
2021/11/16 05:35:09;;;;;;;43.47;21.38;;;7.90;99.90;;;;;;5053398;28;20386;-57
2021/11/16 05:37:35;;;;;;;40.92;19.60;;;7.90;99.90;;;;;;5053087;28;20033;-57
2021/11/16 05:40:02;;;;;;;39.22;19.95;;;8.00;99.90;;;;;;5035433;28;20116;-56
2021/11/16 05:42:28;;;;;;;38.80;19.13;;;8.00;99.90;;;;;;5052567;28;20029;-55
2021/11/16 05:44:54;;;;;;;36.55;19.17;;;8.00;99.90;;;;;;5053377;28;20064;-58
2021/11/16 05:47:21;;;;;;;45.08;19.65;;;8.00;99.90;;;;;;5052891;28;20029;-56
2021/11/16 05:49:47;;;;;;;39.70;18.60;;;7.90;99.90;;;;;;5053266;28;20086;-55
2021/11/16 05:52:13;;;;;;;41.33;21.55;;;8.00;99.90;;;;;;5052856;28;20029;-56
2021/11/16 05:54:42;;;;;;;36.40;18.85;;;8.00;99.90;;;;;;5053365;28;20428;-56
2021/11/16 05:57:08;;;;;;;39.03;19.48;;;8.00;99.90;;;;;;5053482;28;20053;-56
2021/11/16 05:59:36;;;;;;;36.40;19.42;;;8.00;99.90;;;;;;5052488;28;20086;-57
2021/11/16 06:02:07;;;;;;;37.92;18.15;;;8.00;99.90;;;;;;5053018;28;20114;-58
2021/11/16 06:04:33;;;;;;;44.00;19.77;;;8.10;99.90;;;;;;5052201;28;20527;-57
2021/11/16 06:07:01;;;;;;;44.03;18.23;;;8.10;99.90;;;;;;5052964;28;20044;-57
2021/11/16 06:09:27;;;;;;;39.67;19.88;;;8.10;99.90;;;;;;5052290;28;20503;-57
2021/11/16 06:11:54;;;;;;;41.08;18.55;;;8.00;99.90;;;;;;5052350;28;20033;-57
2021/11/16 06:14:20;;;;;;;46.70;21.35;;;8.00;99.90;;;;;;5052283;28;20079;-57
2021/11/16 06:16:46;;;;;;;40.33;19.65;;;8.00;99.90;;;;;;5052085;28;20029;-56
2021/11/16 06:19:12;;;;;;;39.58;18.42;;;8.00;99.90;;;;;;5052551;28;20035;-57
2021/11/16 06:21:38;;;;;;;38.83;18.85;;;8.00;99.90;;;;;;5051865;28;20351;-57
2021/11/16 06:24:04;;;;;;;40.25;19.80;;;8.00;99.90;;;;;;5052048;28;20124;-55
2021/11/16 06:26:32;;;;;;;38.67;18.95;;;8.00;99.90;;;;;;5051855;28;20025;-57
2021/11/16 06:29:02;;;;;;;37.70;18.92;;;8.00;99.90;;;;;;5034943;28;20025;-57
2021/11/16 06:31:29;;;;;;;39.90;18.85;;;8.10;99.90;;;;;;5051208;28;20079;-56
2021/11/16 06:33:59;;;;;;;39.83;20.45;;;8.10;99.90;;;;;;5051941;28;20029;-56
2021/11/16 06:36:30;;;;;;;37.72;18.95;;;8.10;99.90;;;;;;5033565;28;20470;-56
2021/11/16 06:38:57;;;;;;;38.47;19.52;;;8.10;99.90;;;;;;5052152;28;20087;-57
2021/11/16 06:41:23;;;;;;;37.15;18.58;;;8.00;99.90;;;;;;5033171;28;20039;-57
2021/11/16 06:43:48;;;;;;;32.78;17.15;;;8.10;99.90;;;;;;5051618;28;20029;-56
2021/11/16 06:46:14;;;;;;;34.72;18.35;;;8.10;99.90;;;;;;5051402;28;20054;-58
2021/11/16 06:48:39;;;;;;;33.90;17.45;;;8.10;99.90;;;;;;5051222;28;20063;-57
2021/11/16 06:51:05;;;;;;;39.00;19.55;;;8.10;99.90;;;;;;5051159;28;20358;-57
2021/11/16 06:53:34;;;;;;;37.38;19.27;;;8.10;99.90;;;;;;5033149;28;20021;-57
2021/11/16 06:56:00;;;;;;;41.47;18.90;;;8.10;99.90;;;;;;5033374;28;20025;-57
2021/11/16 06:58:27;;;;;;;34.85;17.52;;;8.10;99.90;;;;;;5051123;28;20021;-57
2021/11/16 07:00:54;;;;;;;38.13;19.02;;;8.10;99.90;;;;;;5051271;28;20063;-57
2021/11/16 07:03:21;;;;;;;38.75;17.35;;;8.20;99.90;;;;;;5033051;28;20033;-59
2021/11/16 07:05:56;;;;;;;36.55;18.20;;;8.10;99.90;;;;;;5051524;28;20029;-57
2021/11/16 07:08:29;;;;;;;38.15;18.23;;;8.10;99.90;;;;;;5050911;28;20422;-59
2021/11/16 07:11:22;;;;;;;42.17;18.55;;;8.10;99.90;;;;;;5051495;28;20058;-57
2021/11/16 07:13:56;;;;;;;50.22;20.98;;;8.10;99.90;;;;;;5048445;28;20044;-57
2021/11/16 07:16:22;;;;;;;49.33;19.40;;;8.20;99.90;;;;;;5050784;28;20486;-59
2021/11/16 07:18:53;;;;;;;39.03;19.08;;;8.10;99.90;;;;;;5051720;28;20059;-57
2021/11/16 07:21:21;;;;;;;45.05;18.52;;;8.10;99.90;;;;;;5070857;28;20044;-68
2021/11/16 07:24:04;;;;;;;35.58;17.58;;;8.10;99.90;;;;;;5052568;28;20033;-58
2021/11/16 07:26:31;;;;;;;42.17;18.38;;;8.10;99.90;;;;;;5070814;28;20223;-57
2021/11/16 07:28:56;;;;;;;36.17;18.20;;;8.10;99.90;;;;;;5071585;28;20140;-56
2021/11/16 07:31:25;;;;;;;32.50;16.92;;;8.10;99.90;;;;;;5071208;28;20039;-57
2021/11/16 07:33:51;;;;;;;33.75;17.45;;;8.20;99.90;;;;;;5077366;28;20040;-58
2021/11/16 07:36:18;;;;;;;41.00;18.00;;;8.10;99.90;;;;;;5091211;28;20024;-57
2021/11/16 07:38:47;;;;;;;36.15;17.85;;;8.20;99.90;;;;;;5072163;28;20036;-57
2021/11/16 07:41:20;;;;;;;33.75;17.00;;;8.10;99.90;;;;;;5072906;28;20085;-58
2021/11/16 07:43:46;;;;;;;33.58;18.67;;;8.10;99.90;;;;;;5085651;28;20374;-57
2021/11/16 07:46:11;;;;;;;36.92;16.52;;;8.20;99.90;;;;;;5053250;28;20029;-57
2021/11/16 07:48:39;;;;;;;34.55;18.42;;;8.10;99.90;;;;;;5070241;28;20072;-57
2021/11/16 07:51:09;;;;;;;41.88;17.90;;;8.10;99.90;;;;;;5071009;28;20067;-57
2021/11/16 07:53:54;;;;;;;40.47;18.50;;;8.20;99.90;;;;;;5076899;28;20103;-57
2021/11/16 07:56:25;;;;;;;60.53;21.45;;;8.20;99.90;;;;;;5074753;28;20065;-57
2021/11/16 07:59:00;;;;;;;45.60;17.48;;;8.20;99.90;;;;;;5081584;28;20031;-57
2021/11/16 08:12:08;;;;;;;38.60;16.90;;;8.30;99.90;;;;;;5074360;28;20421;-57
2021/11/16 08:14:35;;;;;;;34.60;17.13;;;8.30;99.90;;;;;;5076350;28;20036;-57
2021/11/16 08:17:04;;;;;;;34.05;16.27;;;8.20;99.90;;;;;;5078354;28;20047;-57
2021/11/16 08:19:31;;;;;;;36.67;16.60;;;8.30;99.90;;;;;;5065532;28;20060;-57
2021/11/16 08:22:00;;;;;;;35.15;16.70;;;8.30;99.90;;;;;;5059493;28;20020;-57
2021/11/16 08:24:36;;;;;;;40.10;17.05;;;8.30;99.90;;;;;;5078926;28;20105;-58
2021/11/16 08:27:07;;;;;;;37.05;15.73;;;8.30;99.90;;;;;;5082427;28;20020;-59
2021/11/16 08:29:35;;;;;;;;;;;8.80;99.90;;;;;;5072696;28;20085;-57
2021/11/16 08:32:09;;;;;;;40.05;18.60;;;9.10;99.90;;;;;;5072794;28;19904;-57
2021/11/16 08:34:38;;;;;;;32.17;14.75;;;8.90;99.90;;;;;;5090382;28;20157;-57
2021/11/16 08:37:06;;;;;;;29.23;16.42;;;8.60;99.90;;;;;;5084515;28;20161;-57
2021/11/16 08:39:44;;;;;;;34.10;16.23;;;8.50;99.90;;;;;;5079411;28;20035;-57
2021/11/16 08:42:19;;;;;;;35.20;17.85;;;8.40;99.90;;;;;;5061389;28;20058;-62
2021/11/16 08:45:05;;;;;;;31.63;18.02;;;8.20;99.90;;;;;;5082846;28;20397;-58
2021/11/16 08:47:37;;;;;;;40.28;18.10;;;8.30;99.90;;;;;;5072226;28;20090;-57
2021/11/16 08:50:28;;;;;;;39.33;16.88;;;8.20;99.90;;;;;;5066606;28;20112;-57
2021/11/16 08:52:56;;;;;;;42.25;16.40;;;8.40;99.90;;;;;;5075965;28;20032;-56
2021/11/16 08:55:23;;;;;;;39.30;17.77;;;8.30;99.90;;;;;;5094323;28;20028;-57
2021/11/16 08:57:51;;;;;;;48.65;18.65;;;8.30;99.90;;;;;;5078696;28;20032;-57
2021/11/16 09:00:24;;;;;;;34.38;16.58;;;8.30;99.90;;;;;;5076164;28;20039;-58
2021/11/16 09:03:00;;;;;;;62.20;17.50;;;8.30;99.90;;;;;;5075972;28;20035;-58
2021/11/16 09:05:31;;;;;;;31.60;16.13;;;8.40;99.90;;;;;;5074169;28;20040;-63
2021/11/16 09:07:57;;;;;;;31.10;17.75;;;8.40;99.90;;;;;;5094041;28;20476;-57
2021/11/16 09:10:32;;;;;;;34.90;15.57;;;8.30;99.90;;;;;;5075937;28;20032;-57
2021/11/16 09:13:00;;;;;;;28.02;15.93;;;8.30;99.90;;;;;;5094357;28;20102;-57
2021/11/16 09:15:47;;;;;;;31.60;15.35;;;8.40;99.90;;;;;;5093508;28;20051;-69
2021/11/16 09:18:16;;;;;;;36.42;17.60;;;8.30;99.90;;;;;;5093983;28;20139;-57
2021/11/16 09:20:54;;;;;;;32.60;17.33;;;8.30;99.90;;;;;;5093384;28;20382;-57
2021/11/16 09:23:24;;;;;;;41.45;18.52;;;8.50;99.90;;;;;;5075940;28;20403;-60
2021/11/16 09:25:53;;;;;;;34.42;16.55;;;8.40;99.90;;;;;;5093398;28;20462;-57
2021/11/16 09:28:39;;;;;;;37.28;17.10;;;8.50;99.90;;;;;;5093950;28;20035;-57
2021/11/16 09:31:21;;;;;;;35.17;16.40;;;8.40;99.90;;;;;;5093881;28;20103;-57
2021/11/16 09:33:49;;;;;;;30.60;16.35;;;8.40;99.90;;;;;;5093167;28;20032;-56
2021/11/16 09:36:44;;;;;;;33.90;17.05;;;8.40;99.90;;;;;;5075623;28;20085;-57
2021/11/16 09:39:16;;;;;;;35.05;16.15;;;8.40;99.90;;;;;;5093146;28;20071;-58
2021/11/16 09:41:58;;;;;;;35.15;17.42;;;8.40;99.90;;;;;;5074578;28;20031;-58
2021/11/16 09:44:30;;;;;;;32.80;15.48;;;8.40;99.90;;;;;;5093458;28;20071;-58
2021/11/16 09:47:03;;;;;;;29.63;17.42;;;8.40;99.90;;;;;;5091525;28;20151;-60
2021/11/16 09:49:36;;;;;;;31.70;16.08;;;8.40;99.90;;;;;;5092549;28;20032;-57
2021/11/16 09:52:16;;;;;;;32.45;16.20;;;8.40;99.90;;;;;;5092580;28;20024;-60
2021/11/16 09:55:06;;;;;;;40.05;17.63;;;8.50;99.90;;;;;;5092948;28;20032;-57
2021/11/16 09:57:36;;;;;;;33.33;17.05;;;8.50;99.90;;;;;;5092607;28;20046;-56
2021/11/16 10:00:11;;;;;;;32.78;16.13;;;8.50;99.90;;;;;;5075079;28;20028;-57
2021/11/16 10:02:44;;;;;;;30.08;14.75;;;8.50;99.90;;;;;;5072796;28;20031;-57
2021/11/16 10:05:20;;;;;;;30.35;16.50;;;8.50;99.90;;;;;;5054614;28;20036;-57
2021/11/16 10:07:47;;;;;;;33.15;17.75;;;8.40;99.90;;;;;;5054217;28;20029;-57
2021/11/16 10:10:13;;;;;;;33.47;16.00;;;8.40;99.90;;;;;;5081513;28;21637;-63
2021/11/16 10:12:48;;;;;;;54.90;21.33;;;11.00;99.90;;;;;;5091909;28;20028;-61
2021/11/16 10:15:15;;;;;;;42.00;18.25;;;12.70;99.90;;;;;;5092897;28;20020;-62
2021/11/16 10:17:43;;;;;;;28.30;15.27;;;13.20;99.90;;;;;;5073750;28;20482;-57
2021/11/16 10:20:18;;;;;;;38.40;16.38;;;12.50;99.90;;;;;;5074712;28;20028;-57
2021/11/16 10:22:48;;;;;;;32.92;16.02;;;11.20;99.90;;;;;;5091629;28;20483;-58
2021/11/16 10:25:18;;;;;;;32.00;17.40;;;10.60;99.90;;;;;;5077656;28;20033;-56
2021/11/16 10:27:45;;;;;;;32.92;16.20;;;10.20;99.90;;;;;;5071518;28;20025;-58
2021/11/16 10:30:18;;;;;;;33.05;16.60;;;9.90;99.90;;;;;;5084746;28;20107;-59
2021/11/16 10:32:48;;;;;;;37.58;17.33;;;9.70;99.90;;;;;;5071758;28;20024;-58
2021/11/16 10:35:22;;;;;;;33.15;15.98;;;9.40;99.90;;;;;;5054271;28;20037;-58
2021/11/16 10:37:52;;;;;;;38.25;17.42;;;9.20;99.90;;;;;;5071315;28;20028;-58
2021/11/16 10:40:21;;;;;;;55.75;26.83;;;9.20;99.90;;;;;;5054329;28;20063;-62
2021/11/16 10:42:49;;;;;;;34.70;17.27;;;9.80;99.90;;;;;;5075173;28;20466;-58
2021/11/16 10:45:18;;;;;;;40.22;16.38;;;10.00;99.90;;;;;;5073698;28;20055;-63
2021/11/16 10:47:47;;;;;;;35.80;17.23;;;9.50;99.90;;;;;;5072640;28;20462;-57
2021/11/16 10:50:24;;;;;;;36.78;16.00;;;9.60;99.90;;;;;;5073841;28;20028;-58
2021/11/16 10:53:10;;;;;;;34.70;18.20;;;9.30;99.90;;;;;;5091634;28;20020;-57
2021/11/16 10:55:57;;;;;;;33.47;17.55;;;9.30;99.90;;;;;;5091278;28;20051;-58
2021/11/16 10:58:33;;;;;;;33.88;15.98;;;9.10;99.90;;;;;;5091980;28;20111;-58
2021/11/16 11:01:04;;;;;;;40.00;17.45;;;9.10;99.90;;;;;;5091488;28;20103;-57
2021/11/16 11:03:31;;;;;;;31.73;16.45;;;9.10;99.90;;;;;;5091894;28;20024;-57
2021/11/16 11:06:07;;;;;;;36.15;18.10;;;9.10;99.90;;;;;;5091366;28;20115;-58
2021/11/16 11:08:37;;;;;;;32.30;15.95;;;9.10;99.90;;;;;;5077499;28;20024;-71
2021/11/16 11:11:09;;;;;;;30.42;16.38;;;9.10;99.90;;;;;;5070782;28;20463;-57
2021/11/16 11:13:36;;;;;;;33.13;17.83;;;9.10;99.90;;;;;;5070620;28;20024;-62
2021/11/16 11:16:01;;;;;;;35.10;16.67;;;8.90;99.90;;;;;;5070894;28;20115;-57
2021/11/16 11:18:39;;;;;;;33.58;18.05;;;8.90;99.90;;;;;;5071270;28;20080;-59
2021/11/16 11:21:09;;;;;;;34.50;16.20;;;8.90;99.90;;;;;;5071792;28;20363;-58
2021/11/16 11:23:46;;;;;;;38.67;17.15;;;8.90;99.90;;;;;;5052895;28;20028;-59
2021/11/16 11:26:33;;;;;;;30.65;15.25;;;8.80;99.90;;;;;;5071531;28;20032;-58
2021/11/16 11:29:15;;;;;;;34.60;16.55;;;8.80;99.90;;;;;;5071667;28;20104;-57
2021/11/16 11:31:47;;;;;;;38.10;16.45;;;8.90;99.90;;;;;;5070864;28;20029;-63
2021/11/16 11:34:13;;;;;;;36.50;17.30;;;8.90;99.90;;;;;;5036934;28;20523;-58
2021/11/16 11:36:40;;;;;;;33.60;17.63;;;8.80;99.90;;;;;;5071041;28;20040;-58
2021/11/16 11:39:21;;;;;;;38.35;17.67;;;8.80;99.90;;;;;;5053254;28;20029;-58
2021/11/16 11:41:49;;;;;;;33.28;17.15;;;8.80;99.90;;;;;;5052053;28;20032;-58
2021/11/16 11:44:17;;;;;;;35.35;16.70;;;8.90;99.90;;;;;;5053073;28;20036;-58
2021/11/16 11:46:44;;;;;;;30.58;15.82;;;9.00;99.90;;;;;;5052560;28;20090;-59
2021/11/16 11:49:10;;;;;;;29.27;15.77;;;9.10;99.90;;;;;;5053129;28;20075;-58
2021/11/16 11:51:36;;;;;;;35.45;16.10;;;9.10;99.90;;;;;;5052690;28;20442;-59
2021/11/16 11:54:02;;;;;;;33.95;17.17;;;8.90;99.90;;;;;;5071111;28;20420;-57
2021/11/16 11:56:28;;;;;;;37.17;16.38;;;8.80;99.90;;;;;;5071268;28;20410;-57
2021/11/16 11:58:56;;;;;;;30.60;15.57;;;8.90;99.90;;;;;;5080731;28;20024;-58
2021/11/16 12:01:28;;;;;;;28.98;15.13;;;8.90;99.90;;;;;;5091096;28;20138;-58
2021/11/16 12:03:55;;;;;;;;;;;8.90;99.90;;;;;;5072926;28;20020;-57
2021/11/16 12:06:22;;;;;;;29.45;16.20;;;8.90;99.90;;;;;;5083781;28;19936;-58
2021/11/16 12:08:49;;;;;;;29.23;14.68;;;9.00;99.90;;;;;;5068191;28;20021;-61
2021/11/16 12:11:15;;;;;;;25.77;14.23;;;8.90;99.90;;;;;;5070418;28;20024;-59
2021/11/16 12:13:41;;;;;;;30.95;16.52;;;9.00;99.90;;;;;;5070402;28;20025;-58
2021/11/16 12:16:10;;;;;;;30.95;15.68;;;8.90;99.90;;;;;;5071599;28;20039;-56
2021/11/16 12:18:44;;;;;;;30.08;15.75;;;8.90;99.90;;;;;;5089021;28;20076;-59
2021/11/16 12:21:29;;;;;;;30.70;16.40;;;9.00;99.90;;;;;;5094585;28;20020;-58
2021/11/16 12:23:58;;;;;;;27.27;15.50;;;9.00;99.90;;;;;;5093427;28;20420;-58
2021/11/16 12:26:25;;;;;;;27.92;14.98;;;8.90;99.90;;;;;;5094640;28;20084;-57
2021/11/16 12:28:51;;;;;;;30.80;15.20;;;8.90;99.90;;;;;;5075918;28;20031;-58
2021/11/16 12:31:29;;;;;;;26.15;14.93;;;9.00;99.90;;;;;;5095018;28;20131;-56
2021/11/16 12:33:57;;;;;;;25.85;13.85;;;8.90;99.90;;;;;;5074815;28;20036;-58
2021/11/16 12:36:29;;;;;;;33.10;16.70;;;8.90;99.90;;;;;;5076148;28;20025;-58
2021/11/16 12:38:56;;;;;;;32.55;14.52;;;8.90;99.90;;;;;;5059071;28;20033;-58
2021/11/16 12:41:40;;;;;;;26.70;14.52;;;8.90;99.90;;;;;;5038457;28;20028;-57
2021/11/16 12:44:09;;;;;;;28.65;15.77;;;9.00;99.90;;;;;;5055980;28;20115;-57
2021/11/16 12:46:39;;;;;;;31.70;16.90;;;8.90;99.90;;;;;;5081527;28;20504;-59
2021/11/16 12:49:08;;;;;;;30.38;16.60;;;8.80;99.90;;;;;;5093548;28;20032;-57
2021/11/16 12:51:37;;;;;;;34.40;16.30;;;8.90;99.90;;;;;;5075619;28;20420;-57
2021/11/16 12:54:20;;;;;;;32.78;16.70;;;8.90;99.90;;;;;;5093299;28;20039;-59
2021/11/16 12:56:46;;;;;;;31.25;16.05;;;8.90;99.90;;;;;;5093089;28;20144;-58
2021/11/16 12:59:42;;;;;;;26.50;11.85;;;8.90;99.90;;;;;;5082493;28;20090;-56
2021/11/16 13:02:25;;;;;;;22.73;13.00;;;9.90;99.90;;;;;;5074162;28;20024;-62
2021/11/16 13:05:01;;;;;;;30.52;17.02;;;12.20;99.90;;;;;;5074215;28;20086;-57
2021/11/16 13:07:50;;;;;;;26.13;13.68;;;11.60;99.90;;;;;;5090521;28;20477;-57
2021/11/16 13:10:19;;;;;;;29.73;14.82;;;10.80;99.90;;;;;;5066028;28;20449;-58
2021/11/16 13:12:49;;;;;;;31.10;15.57;;;10.20;99.90;;;;;;5072988;28;20028;-58